Time;durP1;ratioP1;P1;durP2;ratioP2;P2;SDS_P1;SDS_P2;PMS_P1;PMS_P2;Temp;Humidity;BMP_temperature;BMP_pressure;BME280_temperature;BME280_humidity;BME280_pressure;Samples;Min_cycle;Max_cycle;Signal;HPM_P1;HPM_P2
2023/03/12 00:01:52;;;;;;;4.78;1.75;;;16.40;67.70;;;;;;5052238;28;20032;-70
2023/03/12 00:04:17;;;;;;;5.85;2.15;;;16.40;67.80;;;;;;5051122;28;20398;-70
2023/03/12 00:06:43;;;;;;;4.53;1.70;;;16.40;67.70;;;;;;5052197;28;20496;-71
2023/03/12 00:09:09;;;;;;;7.13;2.50;;;16.40;67.70;;;;;;5052033;28;20017;-70
2023/03/12 00:11:34;;;;;;;5.50;1.90;;;16.40;67.70;;;;;;5034304;28;20029;-70
2023/03/12 00:14:00;;;;;;;6.00;2.05;;;16.40;67.70;;;;;;5050881;28;20040;-71
2023/03/12 00:16:26;;;;;;;4.22;1.88;;;16.40;67.70;;;;;;5052056;28;20029;-71
2023/03/12 00:18:52;;;;;;;5.78;2.13;;;16.40;67.70;;;;;;5051003;28;20029;-70
2023/03/12 00:21:19;;;;;;;6.60;2.33;;;16.40;68.70;;;;;;5050728;28;20151;-71
2023/03/12 00:23:46;;;;;;;5.65;2.25;;;16.40;68.00;;;;;;5050395;28;20111;-71
2023/03/12 00:26:12;;;;;;;6.82;2.03;;;16.40;67.70;;;;;;5050844;28;20079;-71
2023/03/12 00:28:38;;;;;;;6.15;2.05;;;16.40;67.70;;;;;;5050881;28;20017;-70
2023/03/12 00:31:12;;;;;;;6.72;1.95;;;16.40;67.70;;;;;;5051968;28;20029;-71
2023/03/12 00:33:38;;;;;;;5.38;2.45;;;16.40;67.70;;;;;;5034758;28;20476;-71
2023/03/12 00:36:04;;;;;;;5.20;2.03;;;16.40;67.70;;;;;;5052074;28;20100;-70
2023/03/12 00:38:29;;;;;;;5.97;2.00;;;16.40;67.70;;;;;;5051596;28;20029;-71
2023/03/12 00:40:55;;;;;;;4.07;1.85;;;16.40;67.70;;;;;;5050763;28;20033;-70
2023/03/12 00:43:21;;;;;;;6.70;2.40;;;16.40;67.70;;;;;;5050624;28;20017;-71
2023/03/12 00:45:46;;;;;;;6.95;2.20;;;16.40;67.70;;;;;;5050328;28;20025;-71
2023/03/12 00:48:12;;;;;;;5.45;1.80;;;16.40;67.70;;;;;;5034209;28;20389;-71
2023/03/12 00:50:37;;;;;;;4.72;2.05;;;16.40;67.70;;;;;;5050493;28;20217;-71
2023/03/12 00:53:03;;;;;;;4.22;1.52;;;16.40;67.70;;;;;;5050330;28;20083;-71
2023/03/12 00:55:29;;;;;;;5.38;2.22;;;16.40;67.60;;;;;;5051586;28;20380;-71
2023/03/12 00:57:54;;;;;;;5.25;2.25;;;16.40;67.70;;;;;;5033965;28;20115;-71
2023/03/12 01:00:20;;;;;;;6.28;2.20;;;16.40;67.70;;;;;;5051457;28;20091;-71
2023/03/12 01:02:46;;;;;;;5.90;1.90;;;16.40;67.70;;;;;;5054113;28;20543;-71
2023/03/12 01:05:12;;;;;;;5.40;1.75;;;16.40;67.70;;;;;;5054105;28;20025;-71
2023/03/12 01:07:38;;;;;;;4.50;2.00;;;16.40;67.60;;;;;;5053836;28;20014;-71
2023/03/12 01:10:04;;;;;;;4.28;2.08;;;16.40;67.70;;;;;;5054085;28;20021;-71
2023/03/12 01:12:30;;;;;;;5.30;2.20;;;16.40;67.60;;;;;;5053933;28;20025;-71
2023/03/12 01:14:55;;;;;;;4.28;1.85;;;16.40;67.70;;;;;;5053964;28;20028;-71
2023/03/12 01:17:21;;;;;;;5.13;2.13;;;16.40;67.60;;;;;;5037071;28;20520;-71
2023/03/12 01:19:47;;;;;;;5.70;2.08;;;16.40;67.60;;;;;;5055135;28;20516;-71
2023/03/12 01:22:12;;;;;;;6.22;2.00;;;16.40;67.70;;;;;;5053629;28;20056;-71
2023/03/12 01:24:38;;;;;;;5.50;2.10;;;16.40;67.70;;;;;;5054892;28;20028;-71
2023/03/12 01:27:04;;;;;;;5.90;2.15;;;16.40;67.60;;;;;;5036987;28;20032;-71
2023/03/12 01:29:29;;;;;;;5.68;1.92;;;16.40;67.60;;;;;;5054862;28;20029;-71
2023/03/12 01:31:55;;;;;;;3.22;1.83;;;16.40;67.60;;;;;;5053654;28;20021;-71
2023/03/12 01:34:20;;;;;;;8.15;1.90;;;16.40;67.70;;;;;;5054539;28;20029;-71
2023/03/12 01:36:46;;;;;;;4.18;1.90;;;16.40;67.60;;;;;;5053388;28;20492;-71
2023/03/12 01:39:12;;;;;;;7.15;2.03;;;16.40;67.60;;;;;;5054644;28;20028;-70
2023/03/12 01:41:38;;;;;;;6.13;1.83;;;16.40;67.60;;;;;;5053356;28;20083;-71
2023/03/12 01:44:03;;;;;;;7.43;2.00;;;16.40;67.60;;;;;;5054656;28;20098;-71
2023/03/12 01:46:33;;;;;;;4.13;1.67;;;16.40;67.60;;;;;;5036341;28;20029;-70
2023/03/12 01:49:20;;;;;;;5.28;1.63;;;16.40;67.60;;;;;;5053351;28;20095;-71
2023/03/12 01:51:57;;;;;;;5.10;1.73;;;16.40;67.60;;;;;;5054254;28;20037;-71
2023/03/12 01:54:29;;;;;;;4.45;2.03;;;16.40;67.60;;;;;;5054348;28;20025;-70
2023/03/12 01:56:54;;;;;;;4.72;1.80;;;16.40;67.60;;;;;;5053250;28;20051;-71
2023/03/12 01:59:32;;;;;;;4.82;1.83;;;16.40;67.60;;;;;;5054283;28;20033;-71
2023/03/12 02:01:57;;;;;;;4.78;1.80;;;16.40;67.60;;;;;;5036813;28;20115;-71
2023/03/12 02:04:23;;;;;;;5.55;2.00;;;16.40;67.60;;;;;;5036477;28;20056;-71
2023/03/12 02:07:07;;;;;;;5.57;2.30;;;16.40;67.60;;;;;;5036951;28;20029;-71
2023/03/12 02:09:35;;;;;;;6.70;2.05;;;16.40;67.60;;;;;;5038750;28;20017;-71
2023/03/12 02:12:01;;;;;;;5.50;2.00;;;16.40;67.60;;;;;;5036064;28;20029;-71
2023/03/12 02:14:26;;;;;;;4.93;1.92;;;16.40;67.60;;;;;;5019382;28;20078;-71
2023/03/12 02:16:52;;;;;;;5.80;1.88;;;16.40;67.60;;;;;;5053003;28;20039;-71
2023/03/12 02:19:53;;;;;;;5.72;2.10;;;16.40;67.60;;;;;;5036043;28;20094;-71
2023/03/12 02:22:19;;;;;;;4.60;1.77;;;16.40;68.60;;;;;;5053900;28;20116;-71
2023/03/12 02:24:47;;;;;;;3.00;1.27;;;16.40;67.60;;;;;;5052711;28;20047;-70
2023/03/12 02:27:13;;;;;;;4.93;1.75;;;16.40;67.60;;;;;;5052746;28;20480;-71
2023/03/12 02:29:40;;;;;;;5.20;2.05;;;16.40;67.60;;;;;;5035958;28;20028;-71
2023/03/12 02:32:06;;;;;;;5.35;2.00;;;16.40;67.60;;;;;;5036155;28;20028;-70
2023/03/12 02:34:32;;;;;;;4.53;1.83;;;16.40;67.50;;;;;;5052051;28;20031;-71
2023/03/12 02:36:57;;;;;;;4.70;1.55;;;16.40;67.60;;;;;;5052542;28;20398;-70
2023/03/12 02:39:23;;;;;;;6.57;1.95;;;16.40;67.50;;;;;;5053514;28;20104;-71
2023/03/12 02:41:53;;;;;;;5.28;1.70;;;16.40;67.50;;;;;;5053440;28;20048;-70
2023/03/12 02:44:21;;;;;;;5.78;1.98;;;16.40;67.50;;;;;;5035564;28;20492;-71
2023/03/12 02:46:54;;;;;;;5.07;1.73;;;16.40;67.50;;;;;;5035688;28;20017;-71
2023/03/12 02:49:20;;;;;;;5.47;2.15;;;16.40;67.50;;;;;;5051861;28;20117;-71
2023/03/12 02:51:46;;;;;;;4.78;1.95;;;16.40;67.60;;;;;;5051899;28;20036;-71
2023/03/12 02:54:12;;;;;;;4.28;1.52;;;16.40;67.50;;;;;;5035763;28;20028;-71
2023/03/12 02:56:38;;;;;;;2.90;1.38;;;16.40;67.50;;;;;;5051994;28;20028;-71
2023/03/12 02:59:04;;;;;;;5.97;1.77;;;16.40;67.50;;;;;;5051927;28;20025;-71
2023/03/12 03:01:32;;;;;;;3.75;1.48;;;16.40;67.50;;;;;;5035401;28;20021;-71
2023/03/12 03:03:58;;;;;;;3.38;1.60;;;16.40;67.50;;;;;;5051890;28;20024;-70
2023/03/12 03:06:24;;;;;;;5.00;1.77;;;16.40;67.50;;;;;;5035388;28;20079;-71
2023/03/12 03:08:50;;;;;;;3.35;1.58;;;16.40;67.50;;;;;;5035356;28;20025;-71
2023/03/12 03:11:15;;;;;;;3.88;1.85;;;16.40;67.50;;;;;;5051584;28;20090;-71
2023/03/12 03:13:41;;;;;;;3.90;1.75;;;16.40;67.50;;;;;;5051839;28;20021;-71
2023/03/12 03:16:07;;;;;;;5.53;1.60;;;16.40;67.50;;;;;;5051864;28;20029;-71
2023/03/12 03:18:32;;;;;;;5.43;1.90;;;16.40;67.50;;;;;;5051204;28;20025;-71
2023/03/12 03:21:08;;;;;;;4.13;1.67;;;16.40;67.50;;;;;;5051550;28;20465;-71
2023/03/12 03:23:34;;;;;;;4.35;1.70;;;16.40;67.50;;;;;;5051032;28;20370;-71
2023/03/12 03:26:00;;;;;;;6.85;2.08;;;16.40;67.50;;;;;;5051709;28;20467;-71
2023/03/12 03:28:26;;;;;;;7.10;1.98;;;16.40;67.50;;;;;;5034869;28;20112;-71
2023/03/12 03:30:53;;;;;;;4.20;1.52;;;16.40;67.50;;;;;;5051443;28;20052;-71
2023/03/12 03:33:19;;;;;;;5.82;1.65;;;16.40;67.50;;;;;;5051101;28;20035;-71
2023/03/12 03:35:44;;;;;;;5.05;1.67;;;16.40;67.50;;;;;;5051320;28;20483;-71
2023/03/12 03:38:10;;;;;;;4.75;1.80;;;16.40;67.50;;;;;;5051598;28;20123;-71
2023/03/12 03:40:36;;;;;;;4.00;1.80;;;16.40;67.50;;;;;;5051229;28;20021;-71
2023/03/12 03:43:01;;;;;;;4.68;1.80;;;16.40;67.50;;;;;;5051198;28;20400;-71
2023/03/12 03:45:27;;;;;;;3.67;1.40;;;16.40;67.50;;;;;;5052249;28;20473;-71
2023/03/12 03:47:53;;;;;;;5.45;1.60;;;16.40;67.50;;;;;;5050836;28;20063;-71
2023/03/12 03:50:19;;;;;;;4.25;1.80;;;16.40;67.40;;;;;;5050850;28;20088;-71
2023/03/12 03:52:44;;;;;;;3.70;1.58;;;16.40;67.40;;;;;;5051085;28;20060;-71
2023/03/12 03:55:11;;;;;;;4.50;1.60;;;16.40;67.40;;;;;;5051200;28;20056;-71
2023/03/12 03:57:37;;;;;;;4.55;1.50;;;16.40;67.40;;;;;;5052268;28;20029;-70
2023/03/12 04:00:08;;;;;;;3.40;1.60;;;16.40;67.40;;;;;;5051051;28;20033;-70
2023/03/12 04:02:33;;;;;;;4.50;1.63;;;16.40;67.40;;;;;;5034888;28;20493;-71
2023/03/12 04:04:59;;;;;;;3.63;1.50;;;16.40;67.40;;;;;;5034620;28;20028;-70
2023/03/12 04:07:25;;;;;;;3.85;1.98;;;16.40;67.50;;;;;;5052337;28;20021;-71
2023/03/12 04:09:51;;;;;;;5.43;1.83;;;16.40;67.40;;;;;;5034154;28;20492;-71
2023/03/12 04:12:17;;;;;;;5.00;1.80;;;16.40;67.40;;;;;;5052280;28;20021;-71
2023/03/12 04:14:42;;;;;;;3.13;1.50;;;16.40;67.40;;;;;;5050967;28;20057;-70
2023/03/12 04:17:08;;;;;;;3.92;1.60;;;16.40;67.40;;;;;;5034395;28;20138;-71
2023/03/12 04:19:34;;;;;;;3.90;1.77;;;16.40;67.40;;;;;;5034294;28;20553;-71
2023/03/12 04:22:00;;;;;;;3.60;1.50;;;16.40;67.40;;;;;;5050832;28;20384;-70
2023/03/12 04:24:25;;;;;;;3.78;1.65;;;16.40;67.30;;;;;;5034467;28;20078;-70
2023/03/12 04:26:51;;;;;;;4.70;1.80;;;16.40;67.40;;;;;;5052078;28;20032;-71
2023/03/12 04:29:17;;;;;;;3.72;1.65;;;16.40;67.40;;;;;;5052085;28;20040;-71
2023/03/12 04:31:43;;;;;;;4.40;1.70;;;16.40;67.30;;;;;;5050492;28;20158;-71
2023/03/12 04:34:09;;;;;;;3.47;1.67;;;16.40;67.30;;;;;;5052842;28;20029;-70
2023/03/12 04:36:35;;;;;;;5.22;1.60;;;16.40;67.40;;;;;;5054653;28;20500;-71
2023/03/12 04:39:00;;;;;;;4.68;1.58;;;16.40;67.30;;;;;;5054762;28;20110;-71
2023/03/12 04:41:26;;;;;;;3.55;1.60;;;16.40;67.40;;;;;;5054449;28;20170;-70
2023/03/12 04:43:52;;;;;;;4.40;1.70;;;16.40;67.30;;;;;;5055544;28;20021;-71
2023/03/12 04:46:17;;;;;;;4.95;1.83;;;16.40;67.30;;;;;;5055435;28;20029;-70
2023/03/12 04:48:43;;;;;;;3.22;1.20;;;16.40;67.30;;;;;;5054520;28;20057;-71
2023/03/12 04:51:09;;;;;;;4.75;1.70;;;16.40;67.40;;;;;;5054198;28;20443;-71
2023/03/12 04:53:34;;;;;;;5.25;1.73;;;16.40;67.30;;;;;;5054437;28;20037;-70
2023/03/12 04:56:00;;;;;;;3.60;1.38;;;16.40;67.30;;;;;;5055457;28;20036;-71
2023/03/12 04:58:26;;;;;;;3.75;1.50;;;16.40;68.40;;;;;;5055307;28;20029;-71
2023/03/12 05:00:51;;;;;;;4.07;1.70;;;16.40;67.30;;;;;;5037462;28;20427;-71
2023/03/12 05:03:17;;;;;;;3.60;1.25;;;16.40;67.30;;;;;;5055401;28;20029;-70
2023/03/12 05:05:43;;;;;;;4.60;1.63;;;16.40;67.30;;;;;;5055251;28;20032;-71
2023/03/12 05:08:08;;;;;;;2.75;1.23;;;16.40;67.30;;;;;;5055233;28;20025;-71
2023/03/12 05:10:34;;;;;;;4.43;1.63;;;16.40;67.30;;;;;;5037332;28;20021;-71
2023/03/12 05:12:59;;;;;;;2.75;1.35;;;16.40;67.30;;;;;;5053711;28;20408;-70
2023/03/12 05:15:25;;;;;;;3.70;1.33;;;16.40;67.30;;;;;;5055357;28;20484;-71
2023/03/12 05:17:51;;;;;;;4.13;1.70;;;16.40;67.30;;;;;;5037274;28;20089;-71
2023/03/12 05:20:17;;;;;;;3.47;1.40;;;16.40;67.30;;;;;;5037495;28;20029;-71
2023/03/12 05:22:42;;;;;;;3.22;1.42;;;16.40;67.30;;;;;;5053604;28;20028;-70
2023/03/12 05:25:08;;;;;;;4.70;1.75;;;16.40;67.30;;;;;;5054886;28;20427;-71
2023/03/12 05:27:34;;;;;;;4.32;1.40;;;16.40;67.30;;;;;;5054676;28;20024;-71
2023/03/12 05:30:00;;;;;;;5.10;1.92;;;16.40;67.30;;;;;;5053824;28;20017;-71
2023/03/12 05:32:25;;;;;;;3.05;1.23;;;16.40;67.30;;;;;;5054663;28;20037;-71
2023/03/12 05:34:51;;;;;;;4.07;1.95;;;16.40;67.30;;;;;;5053525;28;20021;-71
2023/03/12 05:37:17;;;;;;;3.38;1.45;;;16.40;67.30;;;;;;5053525;28;20036;-70
2023/03/12 05:39:45;;;;;;;4.10;1.35;;;16.40;67.30;;;;;;5053546;28;20028;-70
2023/03/12 05:42:12;;;;;;;3.05;1.33;;;16.40;67.30;;;;;;5053141;28;20029;-71
2023/03/12 05:44:38;;;;;;;3.38;1.55;;;16.40;67.30;;;;;;5036887;28;20054;-71
2023/03/12 05:47:04;;;;;;;3.67;1.50;;;16.40;67.20;;;;;;5036005;28;20029;-70
2023/03/12 05:49:29;;;;;;;3.08;1.17;;;16.40;67.30;;;;;;5054274;28;20025;-71
2023/03/12 05:51:55;;;;;;;2.80;1.15;;;16.40;67.20;;;;;;5036696;28;20021;-70
2023/03/12 05:54:21;;;;;;;3.45;1.40;;;16.40;67.20;;;;;;5054300;28;20025;-71
2023/03/12 05:56:46;;;;;;;3.08;1.38;;;16.40;67.20;;;;;;5052903;28;20029;-70
2023/03/12 05:59:12;;;;;;;4.03;1.55;;;16.40;67.20;;;;;;5054263;28;20033;-71
2023/03/12 06:01:38;;;;;;;3.40;1.30;;;16.40;67.20;;;;;;5053076;28;20021;-70
2023/03/12 06:04:04;;;;;;;3.08;1.48;;;16.40;67.30;;;;;;5036615;28;20070;-71
2023/03/12 06:06:33;;;;;;;2.70;1.05;;;16.40;67.30;;;;;;5036457;28;20028;-70
2023/03/12 06:08:59;;;;;;;4.05;1.52;;;16.40;67.30;;;;;;5052842;28;20036;-71
2023/03/12 06:11:25;;;;;;;3.53;1.52;;;16.40;67.20;;;;;;5036228;28;20029;-70
2023/03/12 06:13:50;;;;;;;4.25;1.48;;;16.40;67.20;;;;;;5052739;28;20511;-71
2023/03/12 06:16:16;;;;;;;3.65;1.20;;;16.40;67.30;;;;;;5052918;28;20428;-71
2023/03/12 06:18:41;;;;;;;4.63;1.58;;;16.40;67.30;;;;;;5054369;28;20025;-71
2023/03/12 06:21:11;;;;;;;3.00;1.10;;;16.40;67.30;;;;;;5053789;28;20106;-71
2023/03/12 06:23:37;;;;;;;3.75;1.33;;;16.40;67.20;;;;;;5052637;28;20035;-71
2023/03/12 06:26:03;;;;;;;3.92;1.50;;;16.40;67.20;;;;;;5036041;28;20400;-70
2023/03/12 06:28:28;;;;;;;3.42;1.38;;;16.40;67.20;;;;;;5052633;28;20032;-70
2023/03/12 06:30:54;;;;;;;2.30;1.10;;;16.40;67.20;;;;;;5052457;28;20064;-70
2023/03/12 06:33:20;;;;;;;2.85;1.30;;;16.40;67.20;;;;;;5036000;28;20112;-70
2023/03/12 06:35:45;;;;;;;4.15;1.70;;;16.40;67.20;;;;;;5035767;28;20021;-71
2023/03/12 06:38:11;;;;;;;2.53;1.27;;;16.40;67.20;;;;;;5053665;28;20025;-71
2023/03/12 06:40:37;;;;;;;4.20;1.80;;;16.40;67.20;;;;;;5052008;28;20021;-71
2023/03/12 06:43:03;;;;;;;2.83;1.33;;;16.40;67.20;;;;;;5052146;28;20080;-71
2023/03/12 06:45:28;;;;;;;2.85;1.33;;;16.40;67.20;;;;;;5052172;28;20025;-70
2023/03/12 06:47:54;;;;;;;3.88;1.38;;;16.40;67.30;;;;;;5052200;28;20033;-70
2023/03/12 06:50:20;;;;;;;4.00;1.50;;;16.40;67.30;;;;;;5018780;28;20429;-71
2023/03/12 06:52:45;;;;;;;3.58;1.35;;;16.40;67.30;;;;;;5053268;28;20029;-70
2023/03/12 06:55:11;;;;;;;2.50;1.10;;;16.40;67.20;;;;;;5051940;28;20029;-71
2023/03/12 06:57:37;;;;;;;3.08;1.13;;;16.40;67.30;;;;;;5051152;28;20188;-71
2023/03/12 07:00:03;;;;;;;3.65;1.50;;;16.40;67.20;;;;;;5051876;28;20553;-70
2023/03/12 07:02:29;;;;;;;2.33;1.13;;;16.40;67.20;;;;;;5051958;28;20106;-71
2023/03/12 07:04:55;;;;;;;3.25;1.42;;;16.40;67.20;;;;;;5035120;28;20068;-70
2023/03/12 07:07:20;;;;;;;4.10;1.70;;;16.40;67.20;;;;;;5051973;28;20025;-70
2023/03/12 07:09:46;;;;;;;2.38;1.25;;;16.40;67.20;;;;;;5035160;28;20071;-70
2023/03/12 07:12:12;;;;;;;2.50;1.23;;;16.40;67.20;;;;;;5051762;28;20495;-70
2023/03/12 07:14:37;;;;;;;3.17;1.10;;;16.40;67.20;;;;;;5035200;28;20031;-70
2023/03/12 07:17:03;;;;;;;1.80;0.88;;;16.40;67.20;;;;;;5052862;28;20032;-70
2023/03/12 07:19:29;;;;;;;2.75;1.17;;;16.30;67.20;;;;;;5053017;28;20089;-71
2023/03/12 07:21:55;;;;;;;3.70;1.55;;;16.40;67.20;;;;;;5051435;28;20039;-71
2023/03/12 07:24:22;;;;;;;2.90;1.35;;;16.40;67.20;;;;;;5034790;28;20092;-71
2023/03/12 07:26:47;;;;;;;2.70;1.20;;;16.40;67.20;;;;;;5052632;28;20036;-70
2023/03/12 07:29:13;;;;;;;3.47;1.45;;;16.40;67.20;;;;;;5052738;28;20021;-71
2023/03/12 07:31:38;;;;;;;3.47;1.63;;;16.40;67.20;;;;;;5051632;28;20111;-71
2023/03/12 07:34:04;;;;;;;4.40;1.50;;;16.40;67.20;;;;;;5051430;28;20064;-71
2023/03/12 07:36:31;;;;;;;3.17;1.33;;;16.40;67.20;;;;;;5052389;28;20029;-71
2023/03/12 07:38:57;;;;;;;3.53;1.35;;;16.40;67.20;;;;;;5051228;28;20021;-71
2023/03/12 07:41:22;;;;;;;3.35;1.30;;;16.40;67.20;;;;;;5034664;28;20055;-71
2023/03/12 07:43:48;;;;;;;4.45;1.35;;;16.40;67.20;;;;;;5034471;28;20378;-70
2023/03/12 07:46:14;;;;;;;3.75;1.15;;;16.40;67.20;;;;;;5052399;28;20069;-71
2023/03/12 07:48:39;;;;;;;1.63;1.00;;;16.40;67.20;;;;;;5052489;28;20056;-70
2023/03/12 07:51:05;;;;;;;3.00;1.30;;;16.40;67.20;;;;;;5050909;28;20140;-71
2023/03/12 07:53:31;;;;;;;2.85;1.10;;;16.40;67.20;;;;;;5051213;28;20131;-71
2023/03/12 07:55:56;;;;;;;2.03;1.00;;;16.40;67.20;;;;;;5051033;28;20025;-71
2023/03/12 07:58:22;;;;;;;2.38;1.13;;;16.40;67.20;;;;;;5034450;28;20088;-71
2023/03/12 08:00:48;;;;;;;2.75;1.00;;;16.40;67.20;;;;;;5052061;28;20492;-71
2023/03/12 08:03:13;;;;;;;2.67;1.10;;;16.40;67.20;;;;;;5050951;28;20021;-71
2023/03/12 08:05:39;;;;;;;3.80;1.10;;;16.40;67.20;;;;;;5051177;28;20504;-71
2023/03/12 08:08:05;;;;;;;2.45;1.10;;;16.40;67.20;;;;;;5050888;28;20021;-70
2023/03/12 08:10:31;;;;;;;2.10;1.10;;;16.40;67.20;;;;;;5054199;28;20025;-71
2023/03/12 08:12:56;;;;;;;3.15;1.25;;;16.40;67.30;;;;;;5056078;28;20068;-71
2023/03/12 08:15:22;;;;;;;2.22;1.02;;;16.40;67.20;;;;;;5056465;28;20029;-70
2023/03/12 08:17:48;;;;;;;3.15;1.25;;;16.40;67.20;;;;;;5054963;28;20484;-71
2023/03/12 08:20:13;;;;;;;3.45;1.50;;;16.40;67.20;;;;;;5038567;28;20029;-71
2023/03/12 08:22:40;;;;;;;2.47;1.00;;;16.40;67.20;;;;;;5055880;28;20025;-70
2023/03/12 08:25:07;;;;;;;2.58;1.40;;;16.40;67.20;;;;;;5054620;28;20017;-71
2023/03/12 08:27:32;;;;;;;2.55;1.20;;;16.40;67.20;;;;;;5055003;28;20035;-71
2023/03/12 08:29:58;;;;;;;2.35;1.17;;;16.40;67.20;;;;;;5056243;28;20025;-71
2023/03/12 08:32:24;;;;;;;2.88;1.25;;;16.40;67.20;;;;;;5054930;28;20025;-71
2023/03/12 08:34:49;;;;;;;3.00;1.30;;;16.40;67.20;;;;;;5056154;28;20037;-71
2023/03/12 08:37:15;;;;;;;2.88;1.20;;;16.40;67.20;;;;;;5054516;28;20032;-71
2023/03/12 08:39:41;;;;;;;2.85;1.40;;;16.40;67.20;;;;;;5054735;28;20052;-71
2023/03/12 08:42:06;;;;;;;2.33;1.08;;;16.40;67.30;;;;;;5055815;28;20399;-70
2023/03/12 08:44:32;;;;;;;3.50;1.30;;;16.40;67.20;;;;;;5054812;28;20480;-71
2023/03/12 08:46:58;;;;;;;2.78;1.10;;;16.40;68.30;;;;;;5037877;28;20481;-71
2023/03/12 08:49:24;;;;;;;3.08;1.30;;;16.40;67.30;;;;;;5037746;28;20031;-70
2023/03/12 08:51:50;;;;;;;2.88;1.00;;;16.40;67.30;;;;;;5037689;28;20025;-71
2023/03/12 08:54:17;;;;;;;3.67;1.23;;;16.40;67.20;;;;;;5054508;28;20028;-71
2023/03/12 08:56:43;;;;;;;3.00;1.10;;;16.40;67.30;;;;;;5054450;28;20021;-71
2023/03/12 08:59:09;;;;;;;3.65;1.60;;;16.40;67.20;;;;;;5037819;28;20393;-71
2023/03/12 09:01:35;;;;;;;3.58;1.10;;;16.40;67.30;;;;;;5054063;28;20455;-71
2023/03/12 09:04:02;;;;;;;2.55;1.00;;;16.40;67.20;;;;;;5054170;28;20029;-71
2023/03/12 09:06:28;;;;;;;2.17;1.10;;;16.40;67.20;;;;;;5054248;28;20032;-71
2023/03/12 09:08:53;;;;;;;2.78;0.95;;;16.40;67.20;;;;;;5054114;28;20025;-71
2023/03/12 09:11:19;;;;;;;2.95;1.20;;;16.40;67.20;;;;;;5037699;28;20029;-71
2023/03/12 09:13:45;;;;;;;3.08;1.23;;;16.40;67.20;;;;;;5055259;28;20032;-71
2023/03/12 09:16:10;;;;;;;2.17;1.05;;;16.40;67.20;;;;;;5054143;28;20029;-71
2023/03/12 09:18:36;;;;;;;4.03;1.33;;;16.40;67.20;;;;;;5053992;28;20143;-71
2023/03/12 09:21:02;;;;;;;2.15;1.00;;;16.40;67.20;;;;;;5053708;28;20057;-71
2023/03/12 09:23:27;;;;;;;2.75;1.10;;;16.40;67.20;;;;;;5037438;28;20096;-71
2023/03/12 09:25:53;;;;;;;3.13;1.05;;;16.40;67.20;;;;;;5037197;28;20017;-71
2023/03/12 09:28:19;;;;;;;3.53;1.75;;;16.40;67.20;;;;;;5053791;28;20468;-71
2023/03/12 09:30:45;;;;;;;2.15;1.25;;;16.40;67.20;;;;;;5037275;28;20109;-71
2023/03/12 09:33:11;;;;;;;3.30;1.00;;;16.40;67.30;;;;;;5037101;28;20481;-71
2023/03/12 09:35:36;;;;;;;1.42;0.90;;;16.40;67.70;;;;;;5053629;28;20035;-71
2023/03/12 09:38:02;;;;;;;1.60;1.08;;;16.40;67.30;;;;;;5053738;28;20052;-71
2023/03/12 09:40:32;;;;;;;3.20;1.30;;;16.40;67.20;;;;;;5037073;28;20021;-71
2023/03/12 09:43:12;;;;;;;2.97;1.00;;;16.40;67.20;;;;;;5053309;28;20036;-71
2023/03/12 09:45:42;;;;;;;2.60;1.40;;;16.40;67.30;;;;;;5038750;28;20013;-71
2023/03/12 09:48:19;;;;;;;2.30;1.20;;;16.40;67.20;;;;;;5037024;28;20481;-70
2023/03/12 09:50:48;;;;;;;2.83;1.20;;;16.40;67.20;;;;;;5037804;28;20416;-71
2023/03/12 09:53:32;;;;;;;3.13;1.20;;;16.40;67.20;;;;;;5036964;28;20127;-70
2023/03/12 09:55:58;;;;;;;2.83;1.30;;;16.40;67.20;;;;;;5037317;28;20025;-71
2023/03/12 09:58:31;;;;;;;1.75;0.80;;;16.40;67.20;;;;;;5036800;28;20021;-71
2023/03/12 10:01:24;;;;;;;3.20;1.40;;;16.40;67.20;;;;;;5036737;28;20021;-70
2023/03/12 10:04:11;;;;;;;3.45;1.30;;;16.40;67.20;;;;;;5053150;28;20477;-70
2023/03/12 10:06:59;;;;;;;2.78;1.10;;;16.40;67.20;;;;;;5054321;28;20031;-71
2023/03/12 10:09:45;;;;;;;3.15;1.08;;;16.40;67.20;;;;;;5054422;28;20025;-71
2023/03/12 10:12:43;;;;;;;2.15;0.80;;;16.40;67.30;;;;;;5054027;28;20041;-71
2023/03/12 10:15:49;;;;;;;4.13;1.00;;;16.40;67.20;;;;;;5031870;28;20041;-71
2023/03/12 10:18:44;;;;;;;3.80;1.30;;;16.40;67.30;;;;;;5031855;28;20087;-71
2023/03/12 10:21:33;;;;;;;3.50;1.17;;;16.40;67.20;;;;;;5017878;28;20041;-71
2023/03/12 10:24:30;;;;;;;4.15;1.40;;;16.40;67.30;;;;;;4953582;29;20125;-71
2023/03/12 10:26:56;;;;;;;3.90;1.40;;;16.40;67.20;;;;;;4953783;29;20400;-71
2023/03/12 10:29:27;;;;;;;2.90;1.15;;;16.40;67.30;;;;;;4953769;29;20532;-71
2023/03/12 10:32:06;;;;;;;3.50;1.30;;;16.40;67.20;;;;;;4953387;28;20045;-71
2023/03/12 10:34:54;;;;;;;2.13;1.00;;;16.40;67.20;;;;;;4953702;29;20039;-71
2023/03/12 10:37:41;;;;;;;4.97;1.10;;;16.40;67.20;;;;;;4953359;29;20533;-71
2023/03/12 10:40:14;;;;;;;2.42;1.10;;;16.40;67.20;;;;;;4951747;29;20085;-71
2023/03/12 10:42:40;;;;;;;2.92;1.15;;;16.40;67.30;;;;;;4953358;28;20043;-71
2023/03/12 10:45:14;;;;;;;3.00;1.20;;;16.40;67.20;;;;;;4953377;29;20031;-71
2023/03/12 10:47:40;;;;;;;1.95;1.08;;;16.50;67.20;;;;;;4934711;29;20061;-70
2023/03/12 10:50:18;;;;;;;1.73;0.80;;;16.40;67.20;;;;;;4934084;29;20500;-71
2023/03/12 10:52:45;;;;;;;2.33;1.08;;;16.40;67.20;;;;;;4956599;28;20035;-71
2023/03/12 10:55:25;;;;;;;3.33;1.33;;;16.40;67.20;;;;;;4956397;28;20145;-71
2023/03/12 10:57:50;;;;;;;2.60;0.95;;;16.40;67.20;;;;;;4940567;28;20432;-71
2023/03/12 11:00:22;;;;;;;3.22;1.33;;;16.40;67.20;;;;;;4966679;28;20034;-70
2023/03/12 11:03:17;;;;;;;2.90;1.48;;;16.40;67.20;;;;;;5033222;28;20052;-71
2023/03/12 11:05:49;;;;;;;2.80;1.00;;;16.50;67.30;;;;;;5033233;28;20512;-70
2023/03/12 11:08:29;;;;;;;3.20;1.10;;;16.50;67.20;;;;;;5048359;28;20025;-71
2023/03/12 11:10:56;;;;;;;2.83;1.30;;;16.50;67.20;;;;;;5032147;28;20030;-70
2023/03/12 11:13:39;;;;;;;2.25;0.80;;;16.50;67.30;;;;;;5048532;28;20136;-71
2023/03/12 11:16:17;;;;;;;2.15;0.80;;;16.50;67.30;;;;;;5031818;28;20027;-71
2023/03/12 11:19:03;;;;;;;2.10;0.88;;;16.50;67.20;;;;;;5033146;28;20025;-71
2023/03/12 11:21:30;;;;;;;2.00;1.10;;;16.50;67.20;;;;;;5048372;28;20025;-71
2023/03/12 11:23:56;;;;;;;1.60;0.95;;;16.50;67.20;;;;;;5031852;28;20477;-71
2023/03/12 11:26:36;;;;;;;2.03;0.98;;;16.50;67.20;;;;;;5032929;28;20028;-71
2023/03/12 11:29:22;;;;;;;2.65;1.17;;;16.50;67.20;;;;;;5048737;28;20452;-71
2023/03/12 11:32:01;;;;;;;3.17;1.33;;;16.50;67.20;;;;;;5031227;28;20415;-71
2023/03/12 11:34:29;;;;;;;2.92;1.05;;;16.50;67.20;;;;;;5031743;28;20029;-71
2023/03/12 11:37:09;;;;;;;2.40;1.02;;;16.50;67.20;;;;;;5048524;28;20022;-71
2023/03/12 11:39:59;;;;;;;1.25;0.63;;;16.50;67.30;;;;;;5032590;28;20030;-71
2023/03/12 11:42:34;;;;;;;2.00;0.93;;;16.50;67.20;;;;;;5032626;28;20026;-71
2023/03/12 11:45:21;;;;;;;2.63;1.05;;;16.50;67.30;;;;;;5030718;28;20025;-70
2023/03/12 11:48:32;;;;;;;3.15;1.23;;;16.50;67.20;;;;;;5032644;28;20025;-70
2023/03/12 11:51:00;;;;;;;1.70;0.93;;;16.50;67.30;;;;;;5030195;28;20057;-70
2023/03/12 11:53:44;;;;;;;2.65;1.17;;;16.50;67.30;;;;;;5030694;28;20052;-70
2023/03/12 11:56:28;;;;;;;1.98;0.93;;;16.50;67.30;;;;;;5030496;28;20037;-71
2023/03/12 11:59:16;;;;;;;3.33;1.00;;;16.50;67.30;;;;;;5030438;28;20025;-70
2023/03/12 12:01:48;;;;;;;3.92;1.10;;;16.50;67.20;;;;;;5030121;28;20111;-71
2023/03/12 12:04:47;;;;;;;2.67;1.00;;;16.50;67.30;;;;;;5013838;28;20025;-71
2023/03/12 12:07:37;;;;;;;1.77;0.93;;;16.50;67.30;;;;;;5030305;28;20032;-71
2023/03/12 12:10:23;;;;;;;2.53;0.95;;;16.50;67.30;;;;;;5030279;28;20120;-71
2023/03/12 12:13:27;;;;;;;2.95;1.15;;;16.50;67.30;;;;;;4971554;28;20085;-71
2023/03/12 12:16:04;;;;;;;3.30;1.20;;;16.50;67.30;;;;;;4913864;29;20565;-70
2023/03/12 12:18:45;;;;;;;1.60;0.80;;;16.50;67.30;;;;;;4914119;29;20072;-71
2023/03/12 12:21:35;;;;;;;2.83;0.98;;;16.50;67.40;;;;;;4898097;29;20040;-70
2023/03/12 12:24:19;;;;;;;1.77;0.90;;;16.50;67.30;;;;;;4913930;29;20040;-71
2023/03/12 12:27:18;;;;;;;2.72;0.85;;;16.50;67.40;;;;;;4913991;29;20044;-71
2023/03/12 12:30:05;;;;;;;1.15;0.60;;;16.60;67.30;;;;;;4913470;29;20032;-71
2023/03/12 12:32:33;;;;;;;2.17;0.80;;;16.50;67.30;;;;;;4898163;29;20513;-70
2023/03/12 12:35:35;;;;;;;1.63;0.80;;;16.50;67.30;;;;;;4913955;29;20034;-71
2023/03/12 12:38:20;;;;;;;2.90;0.95;;;16.50;67.30;;;;;;4913757;29;20492;-70
2023/03/12 12:41:14;;;;;;;1.58;0.90;;;16.50;67.30;;;;;;4900488;29;20043;-71
2023/03/12 12:43:50;;;;;;;2.10;0.80;;;16.50;67.40;;;;;;4913390;29;20052;-71
2023/03/12 12:46:20;;;;;;;2.58;0.88;;;16.60;67.40;;;;;;4924666;28;20234;-71
2023/03/12 12:48:57;;;;;;;1.60;1.17;;;16.50;67.30;;;;;;4975070;28;20031;-71
2023/03/12 12:51:30;;;;;;;2.00;0.88;;;16.60;67.40;;;;;;5015796;28;20397;-71
2023/03/12 12:54:17;;;;;;;2.33;0.93;;;16.60;67.40;;;;;;5014500;28;20024;-71
2023/03/12 12:56:47;;;;;;;2.25;0.90;;;16.60;67.30;;;;;;5035178;28;20049;-71
2023/03/12 12:59:31;;;;;;;2.30;0.93;;;16.60;67.30;;;;;;5034219;28;20026;-71
2023/03/12 13:01:57;;;;;;;1.10;0.80;;;16.60;67.30;;;;;;5035538;28;20021;-71